createdAt,value
2019-05-13T00:02:25.744Z,6.30
2019-05-13T00:07:34.228Z,6.20
2019-05-13T00:12:36.028Z,6.10
2019-05-13T00:17:37.587Z,6.00
2019-05-13T00:22:44.690Z,5.90
2019-05-13T00:27:45.682Z,5.80
2019-05-13T00:32:47.142Z,5.70
2019-05-13T00:37:54.138Z,5.60
2019-05-13T00:42:58.091Z,5.60
2019-05-13T00:47:59.535Z,5.60
2019-05-13T00:53:01.018Z,5.50
2019-05-13T00:58:04.312Z,5.50
2019-05-13T01:03:09.190Z,5.40
2019-05-13T01:08:10.637Z,5.40
2019-05-13T01:13:13.624Z,5.30
2019-05-13T01:18:15.149Z,5.20
2019-05-13T01:23:16.602Z,5.10
2019-05-13T01:28:19.986Z,5.00
2019-05-13T01:33:23.571Z,5.00
2019-05-13T01:38:26.252Z,5.00
2019-05-13T01:43:27.727Z,4.90
2019-05-13T01:48:29.202Z,4.90
2019-05-13T01:53:30.788Z,4.80
2019-05-13T01:58:38.469Z,4.80
2019-05-13T02:03:39.782Z,4.80
2019-05-13T02:08:41.246Z,4.80
2019-05-13T02:13:44.632Z,4.70
2019-05-13T02:18:46.357Z,4.60
2019-05-13T02:23:47.803Z,4.50
2019-05-13T02:28:50.235Z,4.50
2019-05-13T02:34:02.558Z,4.40
2019-05-13T02:39:06.628Z,4.40
2019-05-13T02:44:08.269Z,4.30
2019-05-13T02:49:12.224Z,4.20
2019-05-13T02:54:22.694Z,4.20
2019-05-13T02:59:24.247Z,4.20
2019-05-13T03:04:25.728Z,4.10
2019-05-13T03:09:27.215Z,4.00
2019-05-13T03:14:32.500Z,3.90
2019-05-13T03:19:34.134Z,3.80
2019-05-13T03:24:35.607Z,3.70
2019-05-13T03:29:37.050Z,3.70
2019-05-13T03:34:38.572Z,3.60
2019-05-13T03:39:43.428Z,3.50
2019-05-13T03:44:52.434Z,3.50
2019-05-13T03:49:57.553Z,3.40
2019-05-13T03:55:02.907Z,3.40
2019-05-13T04:00:06.414Z,3.30
2019-05-13T04:05:13.746Z,3.20
2019-05-13T04:10:15.861Z,3.20
2019-05-13T04:15:18.167Z,3.20
2019-05-13T04:20:22.616Z,3.20
2019-05-13T04:25:23.485Z,3.20
2019-05-13T04:30:25.362Z,3.30
2019-05-13T04:35:27.113Z,3.30
2019-05-13T04:40:28.738Z,3.50
2019-05-13T04:45:33.032Z,3.60
2019-05-13T04:50:33.707Z,3.60
2019-05-13T04:55:35.383Z,3.80
2019-05-13T05:01:14.196Z,3.90
2019-05-13T05:06:44.898Z,4.10
2019-05-13T05:12:28.674Z,4.20
2019-05-13T05:18:04.636Z,4.40
2019-05-13T05:23:31.850Z,4.70
2019-05-13T05:28:42.686Z,4.90
2019-05-13T05:34:19.003Z,5.20
2019-05-13T05:39:25.999Z,5.40
2019-05-13T05:44:32.498Z,5.70
2019-05-13T05:49:38.015Z,6.00
2019-05-13T05:54:42.054Z,6.40
2019-05-13T05:59:43.234Z,7.10
2019-05-13T06:04:46.122Z,7.50
2019-05-13T06:09:47.888Z,8.20
2019-05-13T06:14:52.246Z,8.80
2019-05-13T06:19:53.818Z,9.40
2019-05-13T06:24:55.298Z,9.90
2019-05-13T06:29:56.850Z,10.10
2019-05-13T06:35:01.942Z,10.40
2019-05-13T06:40:05.499Z,10.50
2019-05-13T06:45:07.431Z,10.50
2019-05-13T06:50:11.809Z,10.60
2019-05-13T06:55:13.578Z,10.70
2019-05-13T07:00:15.292Z,10.80
2019-05-13T07:05:17.434Z,10.90
2019-05-13T07:10:21.484Z,11.20
2019-05-13T07:15:22.550Z,11.50
2019-05-13T07:20:24.327Z,11.80
2019-05-13T07:25:26.397Z,12.10
2019-05-13T07:30:43.591Z,12.40
2019-05-13T07:35:46.022Z,12.90
2019-05-13T07:41:01.479Z,13.10
2019-05-13T07:46:03.320Z,13.40
2019-05-13T07:51:07.856Z,13.70
2019-05-13T07:56:13.195Z,14.00
2019-05-13T08:01:24.623Z,14.20
2019-05-13T08:06:29.150Z,14.30
2019-05-13T08:11:36.819Z,14.60
2019-05-13T08:16:47.257Z,14.90
2019-05-13T08:21:48.554Z,15.30
2019-05-13T08:27:01.644Z,15.70
2019-05-13T08:32:08.315Z,15.70
2019-05-13T08:37:12.729Z,16.00
2019-05-13T08:42:18.979Z,16.40
2019-05-13T08:47:18.135Z,16.60
2019-05-13T08:52:21.765Z,16.80
2019-05-13T08:57:24.121Z,16.80
2019-05-13T09:02:34.476Z,17.00
2019-05-13T09:07:43.847Z,17.20
2019-05-13T09:13:02.427Z,17.60
2019-05-13T09:18:13.013Z,17.60
2019-05-13T09:23:15.380Z,18.10
2019-05-13T09:28:22.701Z,18.30
2019-05-13T09:33:32.360Z,18.40
2019-05-13T09:38:34.562Z,18.40
2019-05-13T09:43:36.006Z,18.50
2019-05-13T09:48:37.498Z,18.60
2019-05-13T09:53:42.829Z,18.60
2019-05-13T09:58:51.315Z,18.70
2019-05-13T10:03:57.160Z,18.90
2019-05-13T10:09:05.154Z,19.10
2019-05-13T10:14:08.531Z,19.30
2019-05-13T10:19:12.301Z,19.40
2019-05-13T10:24:13.291Z,19.40
2019-05-13T10:29:15.070Z,19.40
2019-05-13T10:34:22.945Z,19.30
2019-05-13T10:39:34.196Z,19.60
2019-05-13T10:44:45.602Z,20.00
2019-05-13T10:49:47.071Z,20.20
2019-05-13T10:54:49.474Z,20.30
2019-05-13T10:59:52.452Z,20.30
2019-05-13T11:04:54.248Z,20.20
2019-05-13T11:09:58.796Z,20.20
2019-05-13T11:15:02.492Z,20.20
2019-05-13T11:20:06.240Z,20.20
2019-05-13T11:25:08.032Z,20.30
2019-05-13T11:30:21.654Z,20.60
2019-05-13T11:35:24.276Z,21.20
2019-05-13T11:40:31.878Z,21.50
2019-05-13T11:45:36.746Z,21.60
2019-05-13T11:50:38.232Z,21.50
2019-05-13T11:55:42.251Z,21.10
2019-05-13T12:00:57.170Z,21.40
2019-05-13T12:06:02.270Z,21.60
2019-05-13T12:11:05.549Z,21.50
2019-05-13T12:16:07.074Z,21.60
2019-05-13T12:21:12.326Z,21.70
2019-05-13T12:26:14.001Z,21.60
2019-05-13T12:31:33.680Z,21.90
2019-05-13T12:36:33.180Z,22.00
2019-05-13T12:41:37.802Z,22.10
2019-05-13T12:46:41.286Z,22.10
2019-05-13T12:51:43.997Z,22.00
2019-05-13T12:56:54.503Z,21.80
2019-05-13T13:01:55.965Z,22.10
2019-05-13T13:06:57.341Z,22.30
2019-05-13T13:11:58.925Z,22.30
2019-05-13T13:17:04.336Z,22.40
2019-05-13T13:22:07.882Z,22.40
2019-05-13T13:27:16.119Z,22.30
2019-05-13T13:32:15.866Z,22.70
2019-05-13T13:37:17.249Z,23.10
2019-05-13T13:42:19.781Z,23.50
2019-05-13T13:47:24.307Z,23.40
2019-05-13T13:52:33.483Z,23.90
2019-05-13T13:57:35.248Z,24.10
2019-05-13T14:02:37.230Z,24.00
2019-05-13T14:07:42.183Z,24.10
2019-05-13T14:12:45.478Z,24.30
2019-05-13T14:17:54.948Z,24.80
2019-05-13T14:22:58.017Z,24.80
2019-05-13T14:28:00.633Z,24.40
2019-05-13T14:33:02.427Z,24.50
2019-05-13T14:38:03.907Z,24.40
2019-05-13T14:43:05.497Z,25.00
2019-05-13T14:48:08.971Z,25.00
2019-05-13T14:53:13.516Z,25.00
2019-05-13T14:58:16.828Z,25.20
2019-05-13T15:03:21.691Z,25.30
2019-05-13T15:08:25.888Z,25.70
2019-05-13T15:13:35.676Z,25.70
2019-05-13T15:18:43.024Z,25.30
2019-05-13T15:23:44.492Z,25.50
2019-05-13T15:28:45.953Z,26.20
2019-05-13T15:33:47.424Z,26.10
2019-05-13T15:38:52.216Z,26.00
2019-05-13T15:43:56.898Z,26.40
2019-05-13T15:49:06.283Z,26.20
2019-05-13T15:54:15.304Z,26.60
2019-05-13T15:59:16.356Z,26.50
2019-05-13T16:04:18.650Z,26.70
2019-05-13T16:09:22.071Z,26.20
2019-05-13T16:14:31.364Z,25.10
2019-05-13T16:19:35.666Z,24.30
2019-05-13T16:24:36.959Z,23.50
2019-05-13T16:29:43.901Z,22.10
2019-05-13T16:34:52.074Z,20.60
2019-05-13T16:39:55.084Z,19.60
2019-05-13T16:45:03.387Z,18.90
2019-05-13T16:50:06.665Z,18.60
2019-05-13T16:55:12.593Z,18.40
2019-05-13T17:00:14.610Z,18.10
2019-05-13T17:05:21.939Z,18.00
2019-05-13T17:10:26.466Z,17.90
2019-05-13T17:15:31.234Z,17.70
2019-05-13T17:20:36.396Z,17.60
2019-05-13T17:25:42.138Z,17.50
2019-05-13T17:30:43.031Z,17.40
2019-05-13T17:35:46.776Z,17.20
2019-05-13T17:40:50.147Z,17.20
2019-05-13T17:45:52.511Z,17.10
2019-05-13T17:50:53.860Z,17.00
2019-05-13T17:55:55.301Z,16.90
2019-05-13T18:00:56.804Z,16.80
2019-05-13T18:05:58.282Z,16.70
2019-05-13T18:11:02.155Z,16.60
2019-05-13T18:16:04.896Z,16.50
2019-05-13T18:21:06.200Z,16.40
2019-05-13T18:26:08.655Z,16.30
2019-05-13T18:31:12.073Z,16.10
2019-05-13T18:36:13.456Z,16.00
2019-05-13T18:41:15.020Z,15.80
2019-05-13T18:46:17.631Z,15.60
2019-05-13T18:51:21.147Z,15.40
2019-05-13T18:56:22.840Z,15.20
2019-05-13T19:01:31.970Z,14.90
2019-05-13T19:06:35.496Z,14.70
2019-05-13T19:11:36.755Z,14.50
2019-05-13T19:16:38.138Z,14.20
2019-05-13T19:21:41.512Z,14.00
2019-05-13T19:26:43.848Z,13.80
2019-05-13T19:31:45.292Z,13.60
2019-05-13T19:36:52.408Z,13.40
2019-05-13T19:41:54.727Z,13.20
2019-05-13T19:47:01.725Z,13.10
2019-05-13T19:52:02.763Z,13.00
2019-05-13T19:57:06.178Z,12.80
2019-05-13T20:02:08.704Z,12.60
2019-05-13T20:07:17.217Z,12.50
2019-05-13T20:12:21.202Z,12.40
2019-05-13T20:17:25.963Z,12.30
2019-05-13T20:22:27.371Z,12.20
2019-05-13T20:27:36.524Z,12.00
2019-05-13T20:32:38.913Z,11.90
2019-05-13T20:37:40.374Z,11.80
2019-05-13T20:42:47.598Z,11.70
2019-05-13T20:47:52.299Z,11.60
2019-05-13T20:52:53.736Z,11.50
2019-05-13T20:57:57.035Z,11.40
2019-05-13T21:02:58.639Z,11.30
2019-05-13T21:08:01.752Z,11.20
2019-05-13T21:13:03.345Z,11.10
2019-05-13T21:18:04.768Z,11.00
2019-05-13T21:23:06.254Z,11.00
2019-05-13T21:28:07.745Z,10.90
2019-05-13T21:33:11.364Z,10.80
2019-05-13T21:38:12.462Z,10.80
2019-05-13T21:43:14.925Z,10.70
2019-05-13T21:48:16.397Z,10.70
2019-05-13T21:53:17.834Z,10.60
2019-05-13T21:58:22.343Z,10.50
2019-05-13T22:03:23.579Z,10.50
2019-05-13T22:08:25.971Z,10.40
2019-05-13T22:13:31.381Z,10.40
2019-05-13T22:18:34.739Z,10.30
2019-05-13T22:23:36.213Z,10.20
2019-05-13T22:28:41.749Z,10.20
2019-05-13T22:33:46.546Z,10.10
2019-05-13T22:38:48.095Z,10.00
2019-05-13T22:43:55.518Z,9.90
2019-05-13T22:48:58.574Z,9.80
2019-05-13T22:54:03.288Z,9.80
2019-05-13T22:59:08.310Z,9.70
2019-05-13T23:04:11.488Z,9.60
2019-05-13T23:09:14.057Z,9.50
2019-05-13T23:19:21.738Z,9.50
2019-05-13T23:24:24.320Z,9.40
2019-05-13T23:29:25.818Z,9.30
2019-05-13T23:34:27.237Z,9.30
2019-05-13T23:39:28.897Z,9.20
2019-05-13T23:44:32.209Z,9.10
2019-05-13T23:49:33.611Z,9.00
2019-05-13T23:54:35.081Z,9.00
2019-05-13T23:59:36.483Z,8.90
